Flight Track Log - Related Links

Times and Time Zones

All times are in EDT time to prevent confusion due to time zone crossing. See the AFR7361 flight status page for this flight to view local times or setup timezone preferences in your user account.

Time Position Orientation Groundspeed Altitude Reporting Facility
EDT Latitude Longitude Course Direction KTS MPH feet Rate Location/Type
Tue 12:56:00 AM 48.4733 -4.0507 84° East  Level Estimated
Tue 12:57:00 AM 48.4815 -3.9280 84° East  Level Estimated
Tue 12:58:00 AM 48.4896 -3.8052 84° East  Level Estimated
Tue 12:59:00 AM 48.4975 -3.6825 84° East  Level Estimated
Tue 01:00:00 AM 48.5053 -3.5596 84° East  Level Estimated
Tue 01:01:00 AM 48.5130 -3.4368 85° East  Level Estimated
Tue 01:02:00 AM 48.5205 -3.3139 85° East  Level Estimated
Tue 01:03:00 AM 48.5280 -3.1910 85° East  Level Estimated
Tue 01:04:00 AM 48.5353 -3.0680 85° East  Level Estimated
Tue 01:05:00 AM 48.5424 -2.9450 85° East  Level Estimated
Tue 01:06:00 AM 48.5494 -2.8220 85° East  Level Estimated
Tue 01:07:00 AM 48.5563 -2.6989 85° East  Level Estimated
Tue 01:08:00 AM 48.5631 -2.5758 85° East  Level Estimated
Tue 01:09:00 AM 48.5697 -2.4527 85° East  Level Estimated
Tue 01:10:00 AM 48.5762 -2.3295 85° East  Level Estimated
Tue 01:11:00 AM 48.5826 -2.2063 85° East  Level Estimated
Tue 01:12:00 AM 48.5888 -2.0831 86° East  Level Estimated
Tue 01:13:00 AM 48.5949 -1.9599 86° East  Level Estimated
Tue 01:14:00 AM 48.6009 -1.8366 86° East  Level Estimated
Tue 01:15:00 AM 48.6067 -1.7133 86° East  Level Estimated
Tue 01:16:00 AM 48.6124 -1.5899 86° East  Level Estimated
Tue 01:17:00 AM 48.6180 -1.4665 86° East  Level Estimated
Tue 01:18:00 AM 48.6235 -1.3432 86° East  Level Estimated
Tue 01:19:00 AM 48.6288 -1.2197 86° East  Level Estimated
Tue 01:20:00 AM 48.6340 -1.0963 86° East  Level Estimated
Tue 01:21:00 AM 48.6390 -0.9728 86° East  Level Estimated
Tue 01:22:00 AM 48.6439 -0.8493 87° East  Level Estimated
Tue 01:23:00 AM 48.6487 -0.7258 87° East  Level Estimated
Tue 01:24:00 AM 48.6534 -0.6022 87° East  Level Estimated
Tue 01:25:00 AM 48.6579 -0.4787 87° East  Level Estimated
Tue 01:26:00 AM 48.6623 -0.3551 87° East  Level Estimated
Tue 01:27:00 AM 48.6666 -0.2315 87° East  Level Estimated
Tue 01:28:00 AM 48.6707 -0.1079 87° East  Level Estimated
Tue 01:29:00 AM 48.6747 0.0158 87° East  Level Estimated
Tue 01:30:00 AM 48.6785 0.1395 87° East  Level Estimated
Tue 01:31:00 AM 48.6823 0.2632 87° East  Level Estimated
Tue 01:32:00 AM 48.6859 0.3869 87° East  Level Estimated
Tue 01:33:00 AM 48.6893 0.5106 88° East  Level Estimated
Tue 01:34:00 AM 48.6927 0.6343 88° East  Level Estimated
Tue 01:35:00 AM 48.6959 0.7581 88° East  Level Estimated
Tue 01:36:00 AM 48.6989 0.8819 88° East  Level Estimated
Tue 01:37:00 AM 48.7019 1.0057 88° East  Level Estimated
Tue 01:38:00 AM 48.7047 1.1294 88° East  Level Estimated
Tue 01:39:00 AM 48.7073 1.2533 88° East  Level Estimated
Tue 01:40:00 AM 48.7099 1.3771 88° East  Level Estimated
Tue 01:41:00 AM 48.7123 1.5009 88° East  Level Estimated
Tue 01:42:00 AM 48.7145 1.6248 88° East  Level Estimated
Tue 01:43:00 AM 48.7167 1.7486 88° East  Level Estimated
Tue 01:44:00 AM 48.7187 1.8725 89° East  Level Estimated
Tue 01:45:00 AM 48.7206 1.9964 89° East  Level Estimated
Tue 01:46:00 AM 48.7223 2.1203 89° East  Level Estimated
Tue 01:47:00 AM 48.7239 2.2442 89° East  Level Estimated
Tue 01:48:00 AM 48.7253 2.3594 89° East  Level Estimated
Tue 01:49:00 AM 48.7253 2.3594 North  Level Estimated
Tue 01:50:00 AM 48.7253 2.3594 North  Level Estimated
Tue 01:51:00 AM 48.7253 2.3594 North  Level Estimated
Tue 01:52:00 AM 48.7253 2.3594 North  Level Estimated
Tue 01:53:00 AM 48.7253 2.3594 North  Level Estimated
Tue 01:54:00 AM 48.7253 2.3594 North  Level Estimated
Tue 01:55:00 AM 48.7253 2.3594 North  Level Estimated

Login

Don't have an account? Register now (free) for customized features, flight alerts, and more!